sensor_id;sensor_type;location;lat;lon;timestamp;pressure;altitude;pressure_sealevel;temperature;humidity
75585;BME280;64162;53.508;10.476;2022-12-01T00:01:13;102339.91;;;4.58;82.65
75585;BME280;64162;53.508;10.476;2022-12-01T00:03:40;102335.50;;;4.60;83.17
75585;BME280;64162;53.508;10.476;2022-12-01T00:06:12;102339.06;;;4.58;82.76
75585;BME280;64162;53.508;10.476;2022-12-01T00:08:42;102336.56;;;4.53;83.00
75585;BME280;64162;53.508;10.476;2022-12-01T00:11:29;102332.94;;;4.59;82.93
75585;BME280;64162;53.508;10.476;2022-12-01T00:13:56;102329.28;;;4.64;82.53
75585;BME280;64162;53.508;10.476;2022-12-01T00:16:22;102335.56;;;4.59;82.90
75585;BME280;64162;53.508;10.476;2022-12-01T00:18:50;102333.75;;;4.61;82.72
75585;BME280;64162;53.508;10.476;2022-12-01T00:21:19;102336.44;;;4.58;82.39
75585;BME280;64162;53.508;10.476;2022-12-01T00:23:49;102335.56;;;4.59;82.89
75585;BME280;64162;53.508;10.476;2022-12-01T00:26:17;102331.16;;;4.61;82.72
75585;BME280;64162;53.508;10.476;2022-12-01T00:28:47;102339.84;;;4.61;82.72
75585;BME280;64162;53.508;10.476;2022-12-01T00:31:14;102336.25;;;4.64;82.79
75585;BME280;64162;53.508;10.476;2022-12-01T00:33:41;102340.78;;;4.59;82.65
75585;BME280;64162;53.508;10.476;2022-12-01T00:36:08;102327.63;;;4.62;82.58
75585;BME280;64162;53.508;10.476;2022-12-01T00:38:44;102334.78;;;4.55;82.74
75585;BME280;64162;53.508;10.476;2022-12-01T00:41:12;102336.28;;;4.62;82.43
75585;BME280;64162;53.508;10.476;2022-12-01T00:43:39;102339.97;;;4.57;82.65
75585;BME280;64162;53.508;10.476;2022-12-01T00:46:05;102333.94;;;4.55;82.61
75585;BME280;64162;53.508;10.476;2022-12-01T00:48:32;102337.34;;;4.57;82.68
75585;BME280;64162;53.508;10.476;2022-12-01T00:50:59;102339.00;;;4.59;82.40
75585;BME280;64162;53.508;10.476;2022-12-01T00:53:25;102333.25;;;4.48;82.21
75585;BME280;64162;53.508;10.476;2022-12-01T00:55:52;102334.06;;;4.50;82.56
75585;BME280;64162;53.508;10.476;2022-12-01T00:58:19;102338.38;;;4.51;82.43
75585;BME280;64162;53.508;10.476;2022-12-01T01:00:46;102336.63;;;4.52;81.98
75585;BME280;64162;53.508;10.476;2022-12-01T01:03:13;102339.44;;;4.44;82.46
75585;BME280;64162;53.508;10.476;2022-12-01T01:05:41;102340.25;;;4.46;82.37
75585;BME280;64162;53.508;10.476;2022-12-01T01:08:12;102334.31;;;4.41;82.34
75585;BME280;64162;53.508;10.476;2022-12-01T01:10:44;102342.00;;;4.46;82.12
75585;BME280;64162;53.508;10.476;2022-12-01T01:13:13;102332.44;;;4.46;82.20
75585;BME280;64162;53.508;10.476;2022-12-01T01:15:40;102348.25;;;4.40;82.24
75585;BME280;64162;53.508;10.476;2022-12-01T01:18:07;102341.31;;;4.39;82.35
75585;BME280;64162;53.508;10.476;2022-12-01T01:20:35;102347.31;;;4.43;82.16
75585;BME280;64162;53.508;10.476;2022-12-01T01:23:02;102349.16;;;4.39;82.23
75585;BME280;64162;53.508;10.476;2022-12-01T01:25:30;102358.59;;;4.43;82.23
75585;BME280;64162;53.508;10.476;2022-12-01T01:27:57;102352.56;;;4.41;82.33
75585;BME280;64162;53.508;10.476;2022-12-01T01:30:24;102355.25;;;4.38;82.13
75585;BME280;64162;53.508;10.476;2022-12-01T01:32:50;102362.91;;;4.44;82.20
75585;BME280;64162;53.508;10.476;2022-12-01T01:35:17;102369.03;;;4.43;82.00
75585;BME280;64162;53.508;10.476;2022-12-01T01:37:43;102357.81;;;4.40;82.13
75585;BME280;64162;53.508;10.476;2022-12-01T01:40:10;102359.53;;;4.41;82.16
75585;BME280;64162;53.508;10.476;2022-12-01T01:42:37;102362.16;;;4.41;82.07
75585;BME280;64162;53.508;10.476;2022-12-01T01:45:10;102365.56;;;4.43;81.91
75585;BME280;64162;53.508;10.476;2022-12-01T01:47:42;102360.34;;;4.43;82.06
75585;BME280;64162;53.508;10.476;2022-12-01T01:50:12;102369.03;;;4.43;82.16
75585;BME280;64162;53.508;10.476;2022-12-01T01:52:47;102373.41;;;4.43;81.71
75585;BME280;64162;53.508;10.476;2022-12-01T01:55:16;102372.53;;;4.42;82.08
75585;BME280;64162;53.508;10.476;2022-12-01T01:57:43;102356.88;;;4.42;81.99
75585;BME280;64162;53.508;10.476;2022-12-01T02:00:14;102363.94;;;4.39;81.92
75585;BME280;64162;53.508;10.476;2022-12-01T02:02:46;102362.06;;;4.44;81.92
75585;BME280;64162;53.508;10.476;2022-12-01T02:05:29;102355.19;;;4.41;81.79
75585;BME280;64162;53.508;10.476;2022-12-01T02:07:58;102359.50;;;4.42;81.85
75585;BME280;64162;53.508;10.476;2022-12-01T02:13:26;102361.28;;;4.40;81.96
75585;BME280;64162;53.508;10.476;2022-12-01T02:16:09;102358.69;;;4.40;81.93
75585;BME280;64162;53.508;10.476;2022-12-01T02:30:35;102374.34;;;4.40;81.77
75585;BME280;64162;53.508;10.476;2022-12-01T02:36:19;102368.22;;;4.41;82.04
75585;BME280;64162;53.508;10.476;2022-12-01T02:38:57;102369.16;;;4.39;81.76
75585;BME280;64162;53.508;10.476;2022-12-01T02:41:31;102370.88;;;4.40;81.59
75585;BME280;64162;53.508;10.476;2022-12-01T02:46:39;102372.75;;;4.35;81.64
75585;BME280;64162;53.508;10.476;2022-12-01T02:49:12;102371.00;;;4.35;81.78
75585;BME280;64162;53.508;10.476;2022-12-01T02:51:42;102369.16;;;4.39;81.74
75585;BME280;64162;53.508;10.476;2022-12-01T02:54:11;102372.63;;;4.39;81.85
75585;BME280;64162;53.508;10.476;2022-12-01T02:56:39;102370.22;;;4.31;82.16
75585;BME280;64162;53.508;10.476;2022-12-01T02:59:15;102359.94;;;4.25;82.13
75585;BME280;64162;53.508;10.476;2022-12-01T03:10:24;102356.31;;;4.31;81.54
75585;BME280;64162;53.508;10.476;2022-12-01T03:15:38;102364.91;;;4.35;81.56
75585;BME280;64162;53.508;10.476;2022-12-01T03:21:08;102368.38;;;4.35;81.70
75585;BME280;64162;53.508;10.476;2022-12-01T03:23:41;102366.75;;;4.31;81.56
75585;BME280;64162;53.508;10.476;2022-12-01T03:26:13;102359.66;;;4.36;81.43
75585;BME280;64162;53.508;10.476;2022-12-01T03:28:45;102365.75;;;4.37;81.51
75585;BME280;64162;53.508;10.476;2022-12-01T03:31:17;102358.81;;;4.36;81.42
75585;BME280;64162;53.508;10.476;2022-12-01T03:33:49;102351.88;;;4.35;81.46
75585;BME280;64162;53.508;10.476;2022-12-01T03:38:51;102360.47;;;4.38;81.33
75585;BME280;64162;53.508;10.476;2022-12-01T03:41:23;102354.56;;;4.31;81.20
75585;BME280;64162;53.508;10.476;2022-12-01T03:43:56;102360.53;;;4.37;80.88
75585;BME280;64162;53.508;10.476;2022-12-01T03:46:33;102364.16;;;4.31;81.03
75585;BME280;64162;53.508;10.476;2022-12-01T03:49:03;102359.75;;;4.33;80.74
75585;BME280;64162;53.508;10.476;2022-12-01T03:54:17;102367.63;;;4.31;80.70
75585;BME280;64162;53.508;10.476;2022-12-01T03:56:51;102362.34;;;4.33;80.53
75585;BME280;64162;53.508;10.476;2022-12-01T03:59:21;102365.00;;;4.31;80.68
75585;BME280;64162;53.508;10.476;2022-12-01T04:01:50;102367.66;;;4.30;80.54
75585;BME280;64162;53.508;10.476;2022-12-01T04:04:16;102367.72;;;4.27;80.75
75585;BME280;64162;53.508;10.476;2022-12-01T04:06:46;102367.72;;;4.27;80.40
75585;BME280;64162;53.508;10.476;2022-12-01T04:09:13;102364.31;;;4.25;80.43
75585;BME280;64162;53.508;10.476;2022-12-01T04:11:40;102365.94;;;4.29;80.71
75585;BME280;64162;53.508;10.476;2022-12-01T04:14:25;102361.72;;;4.23;80.57
75585;BME280;64162;53.508;10.476;2022-12-01T04:16:52;102361.72;;;4.23;80.84
75585;BME280;64162;53.508;10.476;2022-12-01T04:19:18;102358.31;;;4.21;80.55
75585;BME280;64162;53.508;10.476;2022-12-01T04:21:45;102371.41;;;4.20;80.42
75585;BME280;64162;53.508;10.476;2022-12-01T04:24:12;102368.69;;;4.23;80.79
75585;BME280;64162;53.508;10.476;2022-12-01T04:26:39;102366.19;;;4.20;80.45
75585;BME280;64162;53.508;10.476;2022-12-01T04:29:08;102361.13;;;4.14;80.81
75585;BME280;64162;53.508;10.476;2022-12-01T04:31:35;102370.72;;;4.12;80.81
75585;BME280;64162;53.508;10.476;2022-12-01T04:34:02;102360.13;;;4.18;80.51
75585;BME280;64162;53.508;10.476;2022-12-01T04:36:31;102365.41;;;4.16;80.25
75585;BME280;64162;53.508;10.476;2022-12-01T04:38:57;102365.34;;;4.18;80.02
75585;BME280;64162;53.508;10.476;2022-12-01T04:41:25;102367.97;;;4.18;80.60
75585;BME280;64162;53.508;10.476;2022-12-01T04:43:54;102370.53;;;4.19;80.70
75585;BME280;64162;53.508;10.476;2022-12-01T04:46:22;102368.03;;;4.15;80.38
75585;BME280;64162;53.508;10.476;2022-12-01T04:48:49;102379.59;;;4.05;80.79
75585;BME280;64162;53.508;10.476;2022-12-01T04:51:16;102373.31;;;4.13;80.63
75585;BME280;64162;53.508;10.476;2022-12-01T04:53:43;102362.81;;;4.15;80.73
75585;BME280;64162;53.508;10.476;2022-12-01T04:56:09;102370.72;;;4.12;80.60
75585;BME280;64162;53.508;10.476;2022-12-01T04:58:36;102372.41;;;4.14;80.57
75585;BME280;64162;53.508;10.476;2022-12-01T05:01:06;102374.97;;;4.16;80.31
75585;BME280;64162;53.508;10.476;2022-12-01T05:03:42;102366.13;;;4.21;80.57
75585;BME280;64162;53.508;10.476;2022-12-01T05:06:11;102365.25;;;4.22;80.60
75585;BME280;64162;53.508;10.476;2022-12-01T05:08:38;102364.38;;;4.22;80.47
75585;BME280;64162;53.508;10.476;2022-12-01T05:11:05;102368.75;;;4.21;80.53
75585;BME280;64162;53.508;10.476;2022-12-01T05:13:35;102364.50;;;4.17;80.80
75585;BME280;64162;53.508;10.476;2022-12-01T05:16:09;102368.69;;;4.23;80.76
75585;BME280;64162;53.508;10.476;2022-12-01T05:18:36;102374.75;;;4.25;80.40
75585;BME280;64162;53.508;10.476;2022-12-01T05:21:04;102367.88;;;4.21;80.62
75585;BME280;64162;53.508;10.476;2022-12-01T05:23:33;102367.78;;;4.25;80.42
75585;BME280;64162;53.508;10.476;2022-12-01T05:26:02;102375.69;;;4.22;80.54
75585;BME280;64162;53.508;10.476;2022-12-01T05:28:29;102370.34;;;4.27;80.43
75585;BME280;64162;53.508;10.476;2022-12-01T05:30:56;102380.69;;;4.30;80.70
75585;BME280;64162;53.508;10.476;2022-12-01T05:33:24;102377.28;;;4.28;80.25
75585;BME280;64162;53.508;10.476;2022-12-01T05:35:51;102380.88;;;4.22;80.52
75585;BME280;64162;53.508;10.476;2022-12-01T05:38:18;102379.03;;;4.27;80.41
75585;BME280;64162;53.508;10.476;2022-12-01T05:40:50;102379.97;;;4.25;80.40
75585;BME280;64162;53.508;10.476;2022-12-01T05:43:17;102388.69;;;4.24;80.29
75585;BME280;64162;53.508;10.476;2022-12-01T05:45:45;102385.94;;;4.28;80.33
75585;BME280;64162;53.508;10.476;2022-12-01T05:48:11;102392.03;;;4.29;80.45
75585;BME280;64162;53.508;10.476;2022-12-01T05:50:38;102397.28;;;4.27;80.63
75585;BME280;64162;53.508;10.476;2022-12-01T05:53:06;102401.66;;;4.27;80.32
75585;BME280;64162;53.508;10.476;2022-12-01T05:55:33;102390.47;;;4.22;80.24
75585;BME280;64162;53.508;10.476;2022-12-01T05:58:00;102386.84;;;4.27;80.10
75585;BME280;64162;53.508;10.476;2022-12-01T06:00:27;102389.53;;;4.24;80.41
75585;BME280;64162;53.508;10.476;2022-12-01T06:02:54;102391.44;;;4.18;80.65
75585;BME280;64162;53.508;10.476;2022-12-01T06:05:20;102400.81;;;4.25;80.44
75585;BME280;64162;53.508;10.476;2022-12-01T06:07:47;102390.28;;;4.29;80.06
75585;BME280;64162;53.508;10.476;2022-12-01T06:10:14;102395.50;;;4.29;80.19
75585;BME280;64162;53.508;10.476;2022-12-01T06:12:40;102393.97;;;4.21;80.40
75585;BME280;64162;53.508;10.476;2022-12-01T06:15:08;102396.53;;;4.22;80.76
75585;BME280;64162;53.508;10.476;2022-12-01T06:17:36;102398.50;;;4.14;80.77
75585;BME280;64162;53.508;10.476;2022-12-01T06:20:06;102395.84;;;4.16;80.68
75585;BME280;64162;53.508;10.476;2022-12-01T06:22:33;102405.38;;;4.17;80.59
75585;BME280;64162;53.508;10.476;2022-12-01T06:25:03;102404.44;;;4.19;80.33
75585;BME280;64162;53.508;10.476;2022-12-01T06:27:29;102406.19;;;4.19;80.57
75585;BME280;64162;53.508;10.476;2022-12-01T06:29:56;102415.94;;;4.12;80.60
75585;BME280;64162;53.508;10.476;2022-12-01T06:32:22;102411.66;;;4.10;80.86
75585;BME280;64162;53.508;10.476;2022-12-01T06:34:49;102414.28;;;4.08;80.87
75585;BME280;64162;53.508;10.476;2022-12-01T06:37:16;102423.78;;;4.11;80.64
75585;BME280;64162;53.508;10.476;2022-12-01T06:39:42;102427.38;;;4.07;80.84
75585;BME280;64162;53.508;10.476;2022-12-01T06:42:09;102428.03;;;4.15;80.57
75585;BME280;64162;53.508;10.476;2022-12-01T06:44:36;102435.00;;;4.14;80.95
75585;BME280;64162;53.508;10.476;2022-12-01T06:47:03;102432.63;;;4.05;80.61
75585;BME280;64162;53.508;10.476;2022-12-01T06:49:30;102429.25;;;4.02;80.69
75585;BME280;64162;53.508;10.476;2022-12-01T06:51:57;102429.16;;;4.05;80.89
75585;BME280;64162;53.508;10.476;2022-12-01T06:54:25;102434.16;;;4.14;80.56
75585;BME280;64162;53.508;10.476;2022-12-01T06:56:51;102435.13;;;4.10;80.99
75585;BME280;64162;53.508;10.476;2022-12-01T06:59:18;102426.41;;;4.11;80.51
75585;BME280;64162;53.508;10.476;2022-12-01T07:01:48;102442.09;;;4.09;80.76
75585;BME280;64162;53.508;10.476;2022-12-01T07:04:14;102442.13;;;4.08;80.69
75585;BME280;64162;53.508;10.476;2022-12-01T07:07:06;102445.81;;;4.01;80.39
75585;BME280;64162;53.508;10.476;2022-12-01T07:09:52;102445.75;;;4.02;80.70
75585;BME280;64162;53.508;10.476;2022-12-01T07:12:18;102441.25;;;4.07;80.47
75585;BME280;64162;53.508;10.476;2022-12-01T07:14:51;102443.13;;;4.04;80.54
75585;BME280;64162;53.508;10.476;2022-12-01T07:17:19;102448.41;;;4.01;80.63
75585;BME280;64162;53.508;10.476;2022-12-01T07:19:46;102444.00;;;4.03;80.53
75585;BME280;64162;53.508;10.476;2022-12-01T07:22:12;102442.19;;;4.05;80.64
75585;BME280;64162;53.508;10.476;2022-12-01T07:24:39;102446.47;;;4.07;80.39
75585;BME280;64162;53.508;10.476;2022-12-01T07:27:05;102438.81;;;4.03;80.72
75585;BME280;64162;53.508;10.476;2022-12-01T07:29:32;102445.63;;;4.07;80.49
75585;BME280;64162;53.508;10.476;2022-12-01T07:31:59;102447.47;;;4.03;80.45
75585;BME280;64162;53.508;10.476;2022-12-01T07:34:25;102447.50;;;4.02;80.64
75585;BME280;64162;53.508;10.476;2022-12-01T07:36:54;102449.88;;;4.11;80.61
75585;BME280;64162;53.508;10.476;2022-12-01T07:39:41;102454.19;;;4.12;80.65
75585;BME280;64162;53.508;10.476;2022-12-01T07:42:08;102451.59;;;4.12;80.64
75585;BME280;64162;53.508;10.476;2022-12-01T07:44:38;102446.34;;;4.13;80.66
75585;BME280;64162;53.508;10.476;2022-12-01T07:47:05;102448.19;;;4.08;80.59
75585;BME280;64162;53.508;10.476;2022-12-01T07:49:34;102448.91;;;4.15;80.71
75585;BME280;64162;53.508;10.476;2022-12-01T07:52:00;102457.59;;;4.15;80.43
75585;BME280;64162;53.508;10.476;2022-12-01T07:54:27;102459.25;;;4.18;80.38
75585;BME280;64162;53.508;10.476;2022-12-01T07:56:54;102445.50;;;4.11;80.23
75585;BME280;64162;53.508;10.476;2022-12-01T07:59:24;102454.94;;;4.17;80.08
75585;BME280;64162;53.508;10.476;2022-12-01T08:01:50;102452.28;;;4.18;79.79
75585;BME280;64162;53.508;10.476;2022-12-01T08:04:20;102456.72;;;4.15;80.05
75585;BME280;64162;53.508;10.476;2022-12-01T08:06:51;102454.88;;;4.20;80.24
75585;BME280;64162;53.508;10.476;2022-12-01T08:09:18;102455.69;;;4.22;79.70
75585;BME280;64162;53.508;10.476;2022-12-01T08:11:44;102456.44;;;4.27;79.70
75585;BME280;64162;53.508;10.476;2022-12-01T08:14:11;102458.28;;;4.22;79.70
75585;BME280;64162;53.508;10.476;2022-12-01T08:16:41;102463.66;;;4.16;79.84
75585;BME280;64162;53.508;10.476;2022-12-01T08:19:11;102459.22;;;4.19;80.07
75585;BME280;64162;53.508;10.476;2022-12-01T08:21:37;102465.19;;;4.24;79.49
75585;BME280;64162;53.508;10.476;2022-12-01T08:24:04;102470.44;;;4.23;79.60
75585;BME280;64162;53.508;10.476;2022-12-01T08:26:31;102466.97;;;4.22;79.57
75585;BME280;64162;53.508;10.476;2022-12-01T08:29:03;102469.69;;;4.18;79.73
75585;BME280;64162;53.508;10.476;2022-12-01T08:31:33;102468.91;;;4.14;79.77
75585;BME280;64162;53.508;10.476;2022-12-01T08:34:04;102472.38;;;4.15;79.78
75585;BME280;64162;53.508;10.476;2022-12-01T08:36:33;102469.06;;;4.08;80.16
75585;BME280;64162;53.508;10.476;2022-12-01T08:39:07;102475.31;;;4.03;80.24
75585;BME280;64162;53.508;10.476;2022-12-01T08:41:34;102471.66;;;4.08;80.15
75585;BME280;64162;53.508;10.476;2022-12-01T08:44:00;102471.66;;;4.08;80.12
75585;BME280;64162;53.508;10.476;2022-12-01T08:46:31;102480.28;;;4.12;80.07
75585;BME280;64162;53.508;10.476;2022-12-01T08:48:58;102474.94;;;4.16;80.05
75585;BME280;64162;53.508;10.476;2022-12-01T08:51:25;102478.41;;;4.17;79.69
75585;BME280;64162;53.508;10.476;2022-12-01T08:53:54;102481.03;;;4.17;79.19
75585;BME280;64162;53.508;10.476;2022-12-01T08:56:31;102479.28;;;4.17;79.25
75585;BME280;64162;53.508;10.476;2022-12-01T08:58:58;102481.81;;;4.20;79.50
75585;BME280;64162;53.508;10.476;2022-12-01T09:01:26;102491.47;;;4.17;79.52
75585;BME280;64162;53.508;10.476;2022-12-01T09:03:55;102491.50;;;4.15;79.53
75585;BME280;64162;53.508;10.476;2022-12-01T09:06:33;102487.03;;;4.20;79.38
75585;BME280;64162;53.508;10.476;2022-12-01T09:09:00;102486.25;;;4.17;78.55
75585;BME280;64162;53.508;10.476;2022-12-01T09:11:27;102488.75;;;4.21;78.66
75585;BME280;64162;53.508;10.476;2022-12-01T09:13:54;102497.44;;;4.22;78.71
75585;BME280;64162;53.508;10.476;2022-12-01T09:16:21;102491.41;;;4.18;78.38
75585;BME280;64162;53.508;10.476;2022-12-01T09:18:47;102495.94;;;4.12;77.91
75585;BME280;64162;53.508;10.476;2022-12-01T09:21:19;102491.56;;;4.12;78.08
75585;BME280;64162;53.508;10.476;2022-12-01T09:23:47;102511.78;;;4.04;78.18
75585;BME280;64162;53.508;10.476;2022-12-01T09:26:16;102505.63;;;4.05;78.01
75585;BME280;64162;53.508;10.476;2022-12-01T09:28:50;102509.06;;;4.07;78.24
75585;BME280;64162;53.508;10.476;2022-12-01T09:31:18;102508.22;;;4.07;78.33
75585;BME280;64162;53.508;10.476;2022-12-01T09:33:45;102511.66;;;4.09;78.31
75585;BME280;64162;53.508;10.476;2022-12-01T09:36:12;102506.72;;;3.98;78.11
75585;BME280;64162;53.508;10.476;2022-12-01T09:38:39;102508.41;;;3.99;77.56
75585;BME280;64162;53.508;10.476;2022-12-01T09:41:13;102502.59;;;3.88;77.80
75585;BME280;64162;53.508;10.476;2022-12-01T09:43:50;102511.19;;;3.91;77.69
75585;BME280;64162;53.508;10.476;2022-12-01T09:46:23;102512.16;;;3.87;77.88
75585;BME280;64162;53.508;10.476;2022-12-01T09:48:53;102514.41;;;3.64;78.00
75585;BME280;64162;53.508;10.476;2022-12-01T09:51:25;102514.94;;;3.80;78.01
75585;BME280;64162;53.508;10.476;2022-12-01T09:53:55;102516.66;;;3.81;78.63
75585;BME280;64162;53.508;10.476;2022-12-01T09:56:26;102513.13;;;3.83;78.11
75585;BME280;64162;53.508;10.476;2022-12-01T09:58:56;102512.50;;;3.72;78.16
75585;BME280;64162;53.508;10.476;2022-12-01T10:01:38;102512.44;;;3.75;78.33
75585;BME280;64162;53.508;10.476;2022-12-01T10:06:51;102504.59;;;3.75;78.57
75585;BME280;64162;53.508;10.476;2022-12-01T10:11:51;102508.91;;;3.78;78.58
75585;BME280;64162;53.508;10.476;2022-12-01T10:14:20;102504.56;;;3.77;78.23
75585;BME280;64162;53.508;10.476;2022-12-01T10:25:21;102498.63;;;3.70;78.84
75585;BME280;64162;53.508;10.476;2022-12-01T10:28:22;102499.38;;;3.75;78.94
75585;BME280;64162;53.508;10.476;2022-12-01T10:30:56;102494.31;;;3.69;79.06
75585;BME280;64162;53.508;10.476;2022-12-01T10:33:32;102495.34;;;3.62;78.90
75585;BME280;64162;53.508;10.476;2022-12-01T10:35:59;102484.03;;;3.63;79.22
75585;BME280;64162;53.508;10.476;2022-12-01T10:38:29;102489.44;;;3.54;79.25
75585;BME280;64162;53.508;10.476;2022-12-01T10:40:58;102486.00;;;3.52;79.49
75585;BME280;64162;53.508;10.476;2022-12-01T10:43:43;102486.94;;;3.48;80.14
75585;BME280;64162;53.508;10.476;2022-12-01T10:49:10;102490.75;;;3.33;80.88
75585;BME280;64162;53.508;10.476;2022-12-01T10:51:56;102487.06;;;3.43;80.49
75585;BME280;64162;53.508;10.476;2022-12-01T10:54:34;102485.19;;;3.48;80.84
75585;BME280;64162;53.508;10.476;2022-12-01T10:57:02;102477.28;;;3.53;81.14
75585;BME280;64162;53.508;10.476;2022-12-01T11:02:20;102473.75;;;3.55;81.39
75585;BME280;64162;53.508;10.476;2022-12-01T11:04:53;102486.00;;;3.52;80.65
75585;BME280;64162;53.508;10.476;2022-12-01T11:07:29;102482.50;;;3.53;80.90
75585;BME280;64162;53.508;10.476;2022-12-01T11:12:52;102472.91;;;3.55;80.66
75585;BME280;64162;53.508;10.476;2022-12-01T11:15:22;102467.66;;;3.56;80.30
75585;BME280;64162;53.508;10.476;2022-12-01T11:17:59;102463.41;;;3.52;80.67
75585;BME280;64162;53.508;10.476;2022-12-01T11:20:28;102458.84;;;3.62;80.26
75585;BME280;64162;53.508;10.476;2022-12-01T11:26:25;102457.88;;;3.66;79.64
75585;BME280;64162;53.508;10.476;2022-12-01T11:29:21;102461.16;;;3.76;79.61
75585;BME280;64162;53.508;10.476;2022-12-01T11:31:50;102467.16;;;3.79;79.70
75585;BME280;64162;53.508;10.476;2022-12-01T11:36:45;102463.53;;;3.85;79.33
75585;BME280;64162;53.508;10.476;2022-12-01T11:39:26;102467.84;;;3.87;79.27
75585;BME280;64162;53.508;10.476;2022-12-01T11:41:56;102459.97;;;3.89;79.33
75585;BME280;64162;53.508;10.476;2022-12-01T11:44:23;102461.56;;;3.96;79.15
75585;BME280;64162;53.508;10.476;2022-12-01T11:47:29;102461.47;;;3.99;79.11
75585;BME280;64162;53.508;10.476;2022-12-01T11:49:58;102464.13;;;3.97;78.76
75585;BME280;64162;53.508;10.476;2022-12-01T11:52:31;102461.72;;;3.88;78.74
75585;BME280;64162;53.508;10.476;2022-12-01T11:57:41;102465.06;;;3.95;78.15
75585;BME280;64162;53.508;10.476;2022-12-01T12:00:17;102452.69;;;4.03;77.77
75585;BME280;64162;53.508;10.476;2022-12-01T12:05:41;102449.00;;;4.10;77.77
75585;BME280;64162;53.508;10.476;2022-12-01T12:08:35;102452.63;;;4.05;78.08
75585;BME280;64162;53.508;10.476;2022-12-01T12:16:29;102456.94;;;4.06;78.41
75585;BME280;64162;53.508;10.476;2022-12-01T12:22:34;102441.00;;;3.82;77.89
75585;BME280;64162;53.508;10.476;2022-12-01T12:25:41;102448.72;;;3.87;78.37
75585;BME280;64162;53.508;10.476;2022-12-01T12:36:42;102439.41;;;3.77;78.02
75585;BME280;64162;53.508;10.476;2022-12-01T12:39:31;102442.13;;;3.72;77.95
75585;BME280;64162;53.508;10.476;2022-12-01T12:42:04;102442.25;;;3.66;78.21
75585;BME280;64162;53.508;10.476;2022-12-01T12:44:59;102441.47;;;3.62;78.45
75585;BME280;64162;53.508;10.476;2022-12-01T12:50:48;102439.78;;;3.60;78.59
75585;BME280;64162;53.508;10.476;2022-12-01T12:53:24;102440.81;;;3.53;79.05
75585;BME280;64162;53.508;10.476;2022-12-01T12:55:57;102438.94;;;3.59;79.02
75585;BME280;64162;53.508;10.476;2022-12-01T12:58:28;102444.84;;;3.66;78.84
75585;BME280;64162;53.508;10.476;2022-12-01T13:01:52;102440.56;;;3.63;78.84
75585;BME280;64162;53.508;10.476;2022-12-01T13:04:01;102437.34;;;3.52;78.56
75585;BME280;64162;53.508;10.476;2022-12-01T13:06:42;102452.94;;;3.54;78.77
75585;BME280;64162;53.508;10.476;2022-12-01T13:09:16;102448.75;;;3.47;78.89
75585;BME280;64162;53.508;10.476;2022-12-01T13:12:03;102437.44;;;3.48;79.21
75585;BME280;64162;53.508;10.476;2022-12-01T13:14:38;102441.94;;;3.43;79.19
75585;BME280;64162;53.508;10.476;2022-12-01T13:17:18;102437.69;;;3.37;79.49
75585;BME280;64162;53.508;10.476;2022-12-01T13:19:46;102435.19;;;3.33;78.79
75585;BME280;64162;53.508;10.476;2022-12-01T13:22:15;102437.72;;;3.36;79.70
75585;BME280;64162;53.508;10.476;2022-12-01T13:24:43;102441.97;;;3.41;79.48
75585;BME280;64162;53.508;10.476;2022-12-01T13:29:39;102438.75;;;3.28;80.05
75585;BME280;64162;53.508;10.476;2022-12-01T13:34:56;102439.50;;;3.34;79.93
75585;BME280;64162;53.508;10.476;2022-12-01T13:37:31;102448.25;;;3.31;80.44
75585;BME280;64162;53.508;10.476;2022-12-01T13:40:07;102450.88;;;3.29;80.45
75585;BME280;64162;53.508;10.476;2022-12-01T13:42:35;102454.38;;;3.28;80.24
75585;BME280;64162;53.508;10.476;2022-12-01T13:45:12;102455.13;;;3.35;80.52
75585;BME280;64162;53.508;10.476;2022-12-01T14:04:19;102450.97;;;3.25;80.99
75585;BME280;64162;53.508;10.476;2022-12-01T14:06:47;102450.22;;;3.20;80.70
75585;BME280;64162;53.508;10.476;2022-12-01T14:09:30;102441.50;;;3.21;81.21
75585;BME280;64162;53.508;10.476;2022-12-01T14:12:14;102451.84;;;3.25;81.23
75585;BME280;64162;53.508;10.476;2022-12-01T14:14:51;102453.63;;;3.23;81.42
75585;BME280;64162;53.508;10.476;2022-12-01T14:17:29;102448.59;;;3.14;81.13
75585;BME280;64162;53.508;10.476;2022-12-01T14:20:17;102448.56;;;3.16;81.02
75585;BME280;64162;53.508;10.476;2022-12-01T14:22:47;102450.25;;;3.18;80.92
75585;BME280;64162;53.508;10.476;2022-12-01T14:25:28;102451.09;;;3.19;81.32
75585;BME280;64162;53.508;10.476;2022-12-01T14:27:59;102450.25;;;3.18;81.38
75585;BME280;64162;53.508;10.476;2022-12-01T14:36:24;102450.28;;;3.17;81.86
75585;BME280;64162;53.508;10.476;2022-12-01T14:39:03;102446.06;;;3.11;81.96
75585;BME280;64162;53.508;10.476;2022-12-01T14:46:41;102441.84;;;3.04;82.06
75585;BME280;64162;53.508;10.476;2022-12-01T14:49:16;102449.59;;;3.07;81.73
75585;BME280;64162;53.508;10.476;2022-12-01T14:51:46;102441.75;;;3.09;81.82
75585;BME280;64162;53.508;10.476;2022-12-01T14:54:24;102445.34;;;3.03;82.47
75585;BME280;64162;53.508;10.476;2022-12-01T14:56:55;102443.75;;;2.96;82.67
75585;BME280;64162;53.508;10.476;2022-12-01T14:59:25;102445.38;;;3.02;82.22
75585;BME280;64162;53.508;10.476;2022-12-01T15:01:55;102451.66;;;2.91;82.77
75585;BME280;64162;53.508;10.476;2022-12-01T15:04:23;102448.91;;;2.99;82.75
75585;BME280;64162;53.508;10.476;2022-12-01T15:06:54;102447.19;;;2.98;82.78
75585;BME280;64162;53.508;10.476;2022-12-01T15:09:22;102441.94;;;2.99;82.98
75585;BME280;64162;53.508;10.476;2022-12-01T15:12:05;102441.78;;;3.07;82.85
75585;BME280;64162;53.508;10.476;2022-12-01T15:14:35;102432.16;;;3.11;83.00
75585;BME280;64162;53.508;10.476;2022-12-01T15:17:04;102437.38;;;3.11;83.10